sensor_id;sensor_type;location;lat;lon;timestamp;P1;durP1;ratioP1;P2;durP2;ratioP2
17993;SDS011;9122;48.406;9.984;2023-07-30T00:02:38;2.75;;;2.60;;
17993;SDS011;9122;48.406;9.984;2023-07-30T00:05:23;2.33;;;2.22;;
17993;SDS011;9122;48.406;9.984;2023-07-30T00:08:08;2.97;;;2.78;;
17993;SDS011;9122;48.406;9.984;2023-07-30T00:10:52;2.85;;;2.50;;
17993;SDS011;9122;48.406;9.984;2023-07-30T00:13:37;2.47;;;2.30;;
17993;SDS011;9122;48.406;9.984;2023-07-30T00:16:21;2.67;;;2.50;;
17993;SDS011;9122;48.406;9.984;2023-07-30T00:19:06;2.88;;;2.67;;
17993;SDS011;9122;48.406;9.984;2023-07-30T00:21:50;2.85;;;2.65;;
17993;SDS011;9122;48.406;9.984;2023-07-30T00:24:34;2.70;;;2.50;;
17993;SDS011;9122;48.406;9.984;2023-07-30T00:27:18;2.75;;;2.55;;
17993;SDS011;9122;48.406;9.984;2023-07-30T00:30:02;2.72;;;2.53;;
17993;SDS011;9122;48.406;9.984;2023-07-30T00:32:47;2.63;;;2.42;;
17993;SDS011;9122;48.406;9.984;2023-07-30T00:35:32;2.75;;;2.55;;
17993;SDS011;9122;48.406;9.984;2023-07-30T00:38:17;3.30;;;2.60;;
17993;SDS011;9122;48.406;9.984;2023-07-30T00:41:02;2.67;;;2.47;;
17993;SDS011;9122;48.406;9.984;2023-07-30T00:43:46;2.78;;;2.42;;
17993;SDS011;9122;48.406;9.984;2023-07-30T00:46:30;2.55;;;2.40;;
17993;SDS011;9122;48.406;9.984;2023-07-30T00:49:15;6.38;;;4.95;;
17993;SDS011;9122;48.406;9.984;2023-07-30T00:51:59;2.40;;;2.30;;
17993;SDS011;9122;48.406;9.984;2023-07-30T00:54:45;2.40;;;2.20;;
17993;SDS011;9122;48.406;9.984;2023-07-30T00:57:30;2.53;;;2.33;;
17993;SDS011;9122;48.406;9.984;2023-07-30T01:00:16;2.78;;;2.60;;
17993;SDS011;9122;48.406;9.984;2023-07-30T01:03:00;2.60;;;2.40;;
17993;SDS011;9122;48.406;9.984;2023-07-30T01:05:45;2.40;;;2.30;;
17993;SDS011;9122;48.406;9.984;2023-07-30T01:08:29;2.67;;;2.22;;
17993;SDS011;9122;48.406;9.984;2023-07-30T01:11:14;3.22;;;2.85;;
17993;SDS011;9122;48.406;9.984;2023-07-30T01:13:59;2.60;;;2.40;;
17993;SDS011;9122;48.406;9.984;2023-07-30T01:16:44;3.08;;;2.83;;
17993;SDS011;9122;48.406;9.984;2023-07-30T01:19:28;2.80;;;2.60;;
17993;SDS011;9122;48.406;9.984;2023-07-30T01:22:12;2.72;;;2.53;;
17993;SDS011;9122;48.406;9.984;2023-07-30T01:24:56;2.67;;;2.20;;
17993;SDS011;9122;48.406;9.984;2023-07-30T01:27:43;3.05;;;2.20;;
17993;SDS011;9122;48.406;9.984;2023-07-30T01:30:38;2.70;;;2.50;;
17993;SDS011;9122;48.406;9.984;2023-07-30T01:33:25;3.10;;;2.90;;
17993;SDS011;9122;48.406;9.984;2023-07-30T01:36:10;2.25;;;2.15;;
17993;SDS011;9122;48.406;9.984;2023-07-30T01:39:00;3.13;;;2.90;;
17993;SDS011;9122;48.406;9.984;2023-07-30T01:41:45;2.78;;;2.58;;
17993;SDS011;9122;48.406;9.984;2023-07-30T01:44:29;3.15;;;2.70;;
17993;SDS011;9122;48.406;9.984;2023-07-30T01:47:14;2.80;;;2.60;;
17993;SDS011;9122;48.406;9.984;2023-07-30T01:49:59;3.90;;;2.90;;
17993;SDS011;9122;48.406;9.984;2023-07-30T01:52:43;3.08;;;2.88;;
17993;SDS011;9122;48.406;9.984;2023-07-30T01:55:28;3.15;;;2.65;;
17993;SDS011;9122;48.406;9.984;2023-07-30T01:58:13;3.88;;;2.88;;
17993;SDS011;9122;48.406;9.984;2023-07-30T02:00:57;2.80;;;2.60;;
17993;SDS011;9122;48.406;9.984;2023-07-30T02:03:42;2.97;;;2.78;;
17993;SDS011;9122;48.406;9.984;2023-07-30T02:06:26;3.00;;;2.75;;
17993;SDS011;9122;48.406;9.984;2023-07-30T02:09:10;3.50;;;3.20;;
17993;SDS011;9122;48.406;9.984;2023-07-30T02:11:54;3.50;;;3.22;;
17993;SDS011;9122;48.406;9.984;2023-07-30T02:14:38;2.67;;;2.47;;
17993;SDS011;9122;48.406;9.984;2023-07-30T02:17:22;3.17;;;2.85;;
17993;SDS011;9122;48.406;9.984;2023-07-30T02:20:07;2.80;;;2.60;;
17993;SDS011;9122;48.406;9.984;2023-07-30T02:22:52;2.85;;;2.65;;
17993;SDS011;9122;48.406;9.984;2023-07-30T02:25:37;3.38;;;2.72;;
17993;SDS011;9122;48.406;9.984;2023-07-30T02:28:22;3.10;;;2.90;;
17993;SDS011;9122;48.406;9.984;2023-07-30T02:31:06;3.47;;;3.17;;
17993;SDS011;9122;48.406;9.984;2023-07-30T02:33:51;3.05;;;2.85;;
17993;SDS011;9122;48.406;9.984;2023-07-30T02:36:35;3.10;;;2.90;;
17993;SDS011;9122;48.406;9.984;2023-07-30T02:39:20;3.08;;;2.85;;
17993;SDS011;9122;48.406;9.984;2023-07-30T02:42:05;3.83;;;3.05;;
17993;SDS011;9122;48.406;9.984;2023-07-30T02:44:49;2.90;;;2.70;;
17993;SDS011;9122;48.406;9.984;2023-07-30T02:47:34;4.13;;;3.83;;
17993;SDS011;9122;48.406;9.984;2023-07-30T02:50:18;6.03;;;3.70;;
17993;SDS011;9122;48.406;9.984;2023-07-30T02:53:03;4.20;;;3.88;;
17993;SDS011;9122;48.406;9.984;2023-07-30T02:55:47;4.50;;;4.20;;
17993;SDS011;9122;48.406;9.984;2023-07-30T02:58:32;4.63;;;4.32;;
17993;SDS011;9122;48.406;9.984;2023-07-30T03:01:16;4.53;;;4.15;;
17993;SDS011;9122;48.406;9.984;2023-07-30T03:04:01;4.45;;;4.05;;
17993;SDS011;9122;48.406;9.984;2023-07-30T03:06:45;4.68;;;4.38;;
17993;SDS011;9122;48.406;9.984;2023-07-30T03:09:29;4.57;;;4.28;;
17993;SDS011;9122;48.406;9.984;2023-07-30T03:12:13;4.25;;;3.90;;
17993;SDS011;9122;48.406;9.984;2023-07-30T03:14:57;4.80;;;4.38;;
17993;SDS011;9122;48.406;9.984;2023-07-30T03:17:41;4.18;;;3.88;;
17993;SDS011;9122;48.406;9.984;2023-07-30T03:20:26;5.57;;;3.60;;
17993;SDS011;9122;48.406;9.984;2023-07-30T03:23:10;5.05;;;3.60;;
17993;SDS011;9122;48.406;9.984;2023-07-30T03:25:55;3.83;;;3.63;;
17993;SDS011;9122;48.406;9.984;2023-07-30T03:28:39;3.90;;;3.60;;
17993;SDS011;9122;48.406;9.984;2023-07-30T03:31:23;4.18;;;3.88;;
17993;SDS011;9122;48.406;9.984;2023-07-30T03:34:08;4.57;;;4.28;;
17993;SDS011;9122;48.406;9.984;2023-07-30T03:36:53;5.82;;;4.85;;
17993;SDS011;9122;48.406;9.984;2023-07-30T03:39:37;5.68;;;5.18;;
17993;SDS011;9122;48.406;9.984;2023-07-30T03:42:21;5.10;;;4.60;;
17993;SDS011;9122;48.406;9.984;2023-07-30T03:45:05;4.93;;;4.55;;
17993;SDS011;9122;48.406;9.984;2023-07-30T03:47:50;5.10;;;4.68;;
17993;SDS011;9122;48.406;9.984;2023-07-30T03:50:35;5.50;;;4.32;;
17993;SDS011;9122;48.406;9.984;2023-07-30T03:53:19;4.70;;;4.30;;
17993;SDS011;9122;48.406;9.984;2023-07-30T03:56:04;5.18;;;4.68;;
17993;SDS011;9122;48.406;9.984;2023-07-30T03:58:48;7.55;;;4.15;;
17993;SDS011;9122;48.406;9.984;2023-07-30T04:01:33;6.43;;;4.50;;
17993;SDS011;9122;48.406;9.984;2023-07-30T04:04:17;4.80;;;4.40;;
17993;SDS011;9122;48.406;9.984;2023-07-30T04:07:01;4.88;;;4.53;;
17993;SDS011;9122;48.406;9.984;2023-07-30T04:09:46;4.50;;;4.10;;
17993;SDS011;9122;48.406;9.984;2023-07-30T04:12:31;4.70;;;3.88;;
17993;SDS011;9122;48.406;9.984;2023-07-30T04:15:15;5.53;;;5.00;;
17993;SDS011;9122;48.406;9.984;2023-07-30T04:18:00;5.72;;;4.40;;
17993;SDS011;9122;48.406;9.984;2023-07-30T04:20:45;4.93;;;4.43;;
17993;SDS011;9122;48.406;9.984;2023-07-30T04:23:29;4.73;;;4.33;;
17993;SDS011;9122;48.406;9.984;2023-07-30T04:26:13;4.50;;;4.07;;
17993;SDS011;9122;48.406;9.984;2023-07-30T04:28:58;4.53;;;4.13;;
17993;SDS011;9122;48.406;9.984;2023-07-30T04:31:41;4.38;;;4.07;;
17993;SDS011;9122;48.406;9.984;2023-07-30T04:34:26;3.60;;;3.38;;
17993;SDS011;9122;48.406;9.984;2023-07-30T04:37:10;6.05;;;4.07;;
17993;SDS011;9122;48.406;9.984;2023-07-30T04:39:56;4.57;;;3.72;;
17993;SDS011;9122;48.406;9.984;2023-07-30T04:42:40;4.07;;;3.08;;
17993;SDS011;9122;48.406;9.984;2023-07-30T04:45:24;3.63;;;3.17;;
17993;SDS011;9122;48.406;9.984;2023-07-30T04:48:09;3.63;;;3.33;;
17993;SDS011;9122;48.406;9.984;2023-07-30T04:50:53;4.93;;;3.30;;
17993;SDS011;9122;48.406;9.984;2023-07-30T04:53:38;3.22;;;3.03;;
17993;SDS011;9122;48.406;9.984;2023-07-30T04:56:22;3.92;;;3.63;;
17993;SDS011;9122;48.406;9.984;2023-07-30T04:59:08;4.00;;;3.50;;
17993;SDS011;9122;48.406;9.984;2023-07-30T05:01:52;3.70;;;3.50;;
17993;SDS011;9122;48.406;9.984;2023-07-30T05:04:36;3.40;;;3.17;;
17993;SDS011;9122;48.406;9.984;2023-07-30T05:07:21;3.78;;;3.47;;
17993;SDS011;9122;48.406;9.984;2023-07-30T05:10:05;4.15;;;3.85;;
17993;SDS011;9122;48.406;9.984;2023-07-30T05:12:52;3.33;;;3.13;;
17993;SDS011;9122;48.406;9.984;2023-07-30T05:15:36;4.00;;;3.67;;
17993;SDS011;9122;48.406;9.984;2023-07-30T05:18:20;4.07;;;3.78;;
17993;SDS011;9122;48.406;9.984;2023-07-30T05:21:05;3.47;;;3.28;;
17993;SDS011;9122;48.406;9.984;2023-07-30T05:23:50;3.60;;;3.30;;
17993;SDS011;9122;48.406;9.984;2023-07-30T05:26:34;4.00;;;3.55;;
17993;SDS011;9122;48.406;9.984;2023-07-30T05:29:18;3.45;;;3.13;;
17993;SDS011;9122;48.406;9.984;2023-07-30T05:32:02;3.58;;;3.38;;
17993;SDS011;9122;48.406;9.984;2023-07-30T05:34:47;5.25;;;3.67;;
17993;SDS011;9122;48.406;9.984;2023-07-30T05:37:31;3.53;;;3.22;;
17993;SDS011;9122;48.406;9.984;2023-07-30T05:40:16;3.53;;;3.22;;
17993;SDS011;9122;48.406;9.984;2023-07-30T05:43:00;3.70;;;3.47;;
17993;SDS011;9122;48.406;9.984;2023-07-30T05:45:45;4.18;;;3.60;;
17993;SDS011;9122;48.406;9.984;2023-07-30T05:48:29;3.40;;;3.20;;
17993;SDS011;9122;48.406;9.984;2023-07-30T05:51:14;3.67;;;3.38;;
17993;SDS011;9122;48.406;9.984;2023-07-30T05:53:58;3.80;;;3.50;;
17993;SDS011;9122;48.406;9.984;2023-07-30T05:56:43;4.30;;;3.10;;
17993;SDS011;9122;48.406;9.984;2023-07-30T05:59:27;4.05;;;3.65;;
17993;SDS011;9122;48.406;9.984;2023-07-30T06:02:11;4.13;;;3.83;;
17993;SDS011;9122;48.406;9.984;2023-07-30T06:04:56;3.47;;;3.28;;
17993;SDS011;9122;48.406;9.984;2023-07-30T06:07:40;4.43;;;3.42;;
17993;SDS011;9122;48.406;9.984;2023-07-30T06:10:25;4.05;;;3.75;;
17993;SDS011;9122;48.406;9.984;2023-07-30T06:13:09;4.10;;;3.70;;
17993;SDS011;9122;48.406;9.984;2023-07-30T06:15:53;3.90;;;3.60;;
17993;SDS011;9122;48.406;9.984;2023-07-30T06:18:38;4.47;;;4.05;;
17993;SDS011;9122;48.406;9.984;2023-07-30T06:21:22;4.47;;;4.18;;
17993;SDS011;9122;48.406;9.984;2023-07-30T06:24:06;4.55;;;4.25;;
17993;SDS011;9122;48.406;9.984;2023-07-30T06:26:51;5.65;;;5.25;;
17993;SDS011;9122;48.406;9.984;2023-07-30T06:29:36;5.50;;;5.10;;
17993;SDS011;9122;48.406;9.984;2023-07-30T06:32:20;5.13;;;4.72;;
17993;SDS011;9122;48.406;9.984;2023-07-30T06:35:05;8.15;;;5.13;;
17993;SDS011;9122;48.406;9.984;2023-07-30T06:37:50;5.63;;;5.22;;
17993;SDS011;9122;48.406;9.984;2023-07-30T06:40:35;5.00;;;4.60;;
17993;SDS011;9122;48.406;9.984;2023-07-30T06:43:19;5.93;;;5.43;;
17993;SDS011;9122;48.406;9.984;2023-07-30T06:46:04;4.65;;;4.35;;
17993;SDS011;9122;48.406;9.984;2023-07-30T06:48:48;6.22;;;4.70;;
17993;SDS011;9122;48.406;9.984;2023-07-30T06:51:33;5.07;;;4.68;;
17993;SDS011;9122;48.406;9.984;2023-07-30T06:54:17;5.10;;;4.60;;
17993;SDS011;9122;48.406;9.984;2023-07-30T06:57:02;5.05;;;4.65;;
17993;SDS011;9122;48.406;9.984;2023-07-30T06:59:53;5.05;;;4.65;;
17993;SDS011;9122;48.406;9.984;2023-07-30T07:02:38;4.50;;;4.10;;
17993;SDS011;9122;48.406;9.984;2023-07-30T07:05:22;4.30;;;4.00;;
17993;SDS011;9122;48.406;9.984;2023-07-30T07:08:07;3.65;;;3.35;;
17993;SDS011;9122;48.406;9.984;2023-07-30T07:10:51;4.82;;;3.22;;
17993;SDS011;9122;48.406;9.984;2023-07-30T07:13:35;3.63;;;3.33;;
17993;SDS011;9122;48.406;9.984;2023-07-30T07:16:20;2.78;;;2.58;;
17993;SDS011;9122;48.406;9.984;2023-07-30T07:19:05;2.85;;;2.65;;
17993;SDS011;9122;48.406;9.984;2023-07-30T07:21:49;2.45;;;2.35;;
17993;SDS011;9122;48.406;9.984;2023-07-30T07:24:34;3.58;;;3.00;;
17993;SDS011;9122;48.406;9.984;2023-07-30T07:27:18;3.10;;;2.90;;
17993;SDS011;9122;48.406;9.984;2023-07-30T07:30:03;2.97;;;2.70;;
17993;SDS011;9122;48.406;9.984;2023-07-30T07:32:48;2.83;;;2.63;;
17993;SDS011;9122;48.406;9.984;2023-07-30T07:35:34;2.60;;;2.40;;
17993;SDS011;9122;48.406;9.984;2023-07-30T07:38:19;2.45;;;2.28;;
17993;SDS011;9122;48.406;9.984;2023-07-30T07:41:04;2.60;;;2.45;;
17993;SDS011;9122;48.406;9.984;2023-07-30T07:43:48;3.25;;;2.65;;
17993;SDS011;9122;48.406;9.984;2023-07-30T07:46:33;2.47;;;2.28;;
17993;SDS011;9122;48.406;9.984;2023-07-30T07:49:17;2.40;;;2.30;;
17993;SDS011;9122;48.406;9.984;2023-07-30T07:52:01;2.53;;;2.33;;
17993;SDS011;9122;48.406;9.984;2023-07-30T07:54:46;2.28;;;2.17;;
17993;SDS011;9122;48.406;9.984;2023-07-30T07:57:31;3.13;;;2.38;;
17993;SDS011;9122;48.406;9.984;2023-07-30T08:00:16;2.63;;;2.42;;
17993;SDS011;9122;48.406;9.984;2023-07-30T08:03:04;2.33;;;2.22;;
17993;SDS011;9122;48.406;9.984;2023-07-30T08:05:48;2.35;;;2.25;;
17993;SDS011;9122;48.406;9.984;2023-07-30T08:08:33;2.42;;;2.10;;
17993;SDS011;9122;48.406;9.984;2023-07-30T08:11:17;2.30;;;2.10;;
17993;SDS011;9122;48.406;9.984;2023-07-30T08:14:01;2.85;;;2.38;;
17993;SDS011;9122;48.406;9.984;2023-07-30T08:16:45;3.45;;;2.55;;
17993;SDS011;9122;48.406;9.984;2023-07-30T08:19:30;2.20;;;2.00;;
17993;SDS011;9122;48.406;9.984;2023-07-30T08:22:14;1.85;;;1.75;;
17993;SDS011;9122;48.406;9.984;2023-07-30T08:24:59;2.05;;;1.95;;
17993;SDS011;9122;48.406;9.984;2023-07-30T08:27:43;2.17;;;2.00;;
17993;SDS011;9122;48.406;9.984;2023-07-30T08:30:27;1.83;;;1.73;;
17993;SDS011;9122;48.406;9.984;2023-07-30T08:33:11;2.25;;;2.15;;
17993;SDS011;9122;48.406;9.984;2023-07-30T08:35:56;2.20;;;2.00;;
17993;SDS011;9122;48.406;9.984;2023-07-30T08:38:40;2.28;;;2.17;;
17993;SDS011;9122;48.406;9.984;2023-07-30T08:41:25;2.08;;;1.98;;
17993;SDS011;9122;48.406;9.984;2023-07-30T08:44:09;1.92;;;1.83;;
17993;SDS011;9122;48.406;9.984;2023-07-30T08:46:53;1.98;;;1.88;;
17993;SDS011;9122;48.406;9.984;2023-07-30T08:49:38;4.68;;;2.00;;
17993;SDS011;9122;48.406;9.984;2023-07-30T08:52:23;2.70;;;2.30;;
17993;SDS011;9122;48.406;9.984;2023-07-30T08:55:08;2.53;;;2.33;;
17993;SDS011;9122;48.406;9.984;2023-07-30T08:57:55;1.90;;;1.80;;
17993;SDS011;9122;48.406;9.984;2023-07-30T09:00:41;2.33;;;2.13;;
17993;SDS011;9122;48.406;9.984;2023-07-30T09:03:26;1.90;;;1.80;;
17993;SDS011;9122;48.406;9.984;2023-07-30T09:06:12;2.10;;;2.00;;
17993;SDS011;9122;48.406;9.984;2023-07-30T09:08:57;3.10;;;2.38;;
17993;SDS011;9122;48.406;9.984;2023-07-30T09:11:41;2.63;;;2.38;;
17993;SDS011;9122;48.406;9.984;2023-07-30T09:14:26;2.15;;;2.05;;
17993;SDS011;9122;48.406;9.984;2023-07-30T09:17:11;2.38;;;1.98;;
17993;SDS011;9122;48.406;9.984;2023-07-30T09:20:02;2.00;;;1.90;;
17993;SDS011;9122;48.406;9.984;2023-07-30T09:22:48;1.92;;;1.77;;
17993;SDS011;9122;48.406;9.984;2023-07-30T09:25:36;1.67;;;1.58;;
17993;SDS011;9122;48.406;9.984;2023-07-30T09:28:22;1.67;;;1.58;;
17993;SDS011;9122;48.406;9.984;2023-07-30T09:31:15;1.50;;;1.40;;
17993;SDS011;9122;48.406;9.984;2023-07-30T09:33:59;2.95;;;1.50;;
17993;SDS011;9122;48.406;9.984;2023-07-30T09:36:44;2.08;;;1.50;;
17993;SDS011;9122;48.406;9.984;2023-07-30T09:39:29;1.70;;;1.60;;
17993;SDS011;9122;48.406;9.984;2023-07-30T09:42:14;1.77;;;1.60;;
17993;SDS011;9122;48.406;9.984;2023-07-30T09:44:58;1.50;;;1.40;;
17993;SDS011;9122;48.406;9.984;2023-07-30T09:47:47;1.60;;;1.50;;
17993;SDS011;9122;48.406;9.984;2023-07-30T09:50:37;1.52;;;1.42;;
17993;SDS011;9122;48.406;9.984;2023-07-30T09:53:21;1.60;;;1.50;;
17993;SDS011;9122;48.406;9.984;2023-07-30T09:56:07;7.63;;;1.80;;
17993;SDS011;9122;48.406;9.984;2023-07-30T09:58:52;2.25;;;1.75;;
17993;SDS011;9122;48.406;9.984;2023-07-30T10:01:43;1.67;;;1.58;;
17993;SDS011;9122;48.406;9.984;2023-07-30T10:04:30;1.75;;;1.65;;
17993;SDS011;9122;48.406;9.984;2023-07-30T10:07:17;1.90;;;1.80;;
17993;SDS011;9122;48.406;9.984;2023-07-30T10:10:06;1.67;;;1.58;;
17993;SDS011;9122;48.406;9.984;2023-07-30T10:12:51;2.35;;;1.55;;
17993;SDS011;9122;48.406;9.984;2023-07-30T10:15:39;1.52;;;1.42;;
17993;SDS011;9122;48.406;9.984;2023-07-30T10:18:32;2.17;;;2.08;;
17993;SDS011;9122;48.406;9.984;2023-07-30T10:21:22;2.20;;;2.00;;
17993;SDS011;9122;48.406;9.984;2023-07-30T10:24:07;1.60;;;1.50;;
17993;SDS011;9122;48.406;9.984;2023-07-30T10:26:53;4.50;;;1.60;;
17993;SDS011;9122;48.406;9.984;2023-07-30T10:29:41;1.55;;;1.45;;
17993;SDS011;9122;48.406;9.984;2023-07-30T10:32:35;1.90;;;1.80;;
17993;SDS011;9122;48.406;9.984;2023-07-30T10:38:22;1.83;;;1.73;;
17993;SDS011;9122;48.406;9.984;2023-07-30T10:41:13;1.67;;;1.58;;
17993;SDS011;9122;48.406;9.984;2023-07-30T10:44:00;1.60;;;1.48;;
17993;SDS011;9122;48.406;9.984;2023-07-30T10:46:45;2.15;;;1.52;;
17993;SDS011;9122;48.406;9.984;2023-07-30T10:49:35;1.70;;;1.60;;
17993;SDS011;9122;48.406;9.984;2023-07-30T10:52:23;1.77;;;1.67;;
17993;SDS011;9122;48.406;9.984;2023-07-30T10:55:08;1.48;;;1.40;;
17993;SDS011;9122;48.406;9.984;2023-07-30T10:57:52;1.58;;;1.48;;
17993;SDS011;9122;48.406;9.984;2023-07-30T11:00:39;1.67;;;1.58;;
17993;SDS011;9122;48.406;9.984;2023-07-30T11:03:24;1.70;;;1.60;;
17993;SDS011;9122;48.406;9.984;2023-07-30T11:06:12;1.95;;;1.85;;
17993;SDS011;9122;48.406;9.984;2023-07-30T11:08:57;1.67;;;1.58;;
17993;SDS011;9122;48.406;9.984;2023-07-30T11:11:41;2.75;;;2.55;;
17993;SDS011;9122;48.406;9.984;2023-07-30T11:14:26;2.22;;;2.03;;
17993;SDS011;9122;48.406;9.984;2023-07-30T11:17:11;1.60;;;1.50;;
17993;SDS011;9122;48.406;9.984;2023-07-30T11:20:01;4.95;;;1.77;;
17993;SDS011;9122;48.406;9.984;2023-07-30T11:22:46;1.52;;;1.42;;
17993;SDS011;9122;48.406;9.984;2023-07-30T11:25:30;1.73;;;1.63;;
17993;SDS011;9122;48.406;9.984;2023-07-30T11:28:26;1.63;;;1.52;;
17993;SDS011;9122;48.406;9.984;2023-07-30T11:31:13;1.70;;;1.60;;
17993;SDS011;9122;48.406;9.984;2023-07-30T11:34:02;1.80;;;1.70;;
17993;SDS011;9122;48.406;9.984;2023-07-30T11:36:47;1.55;;;1.45;;
17993;SDS011;9122;48.406;9.984;2023-07-30T11:39:32;1.60;;;1.50;;
17993;SDS011;9122;48.406;9.984;2023-07-30T11:42:17;1.65;;;1.55;;
17993;SDS011;9122;48.406;9.984;2023-07-30T11:45:17;1.50;;;1.40;;
17993;SDS011;9122;48.406;9.984;2023-07-30T11:48:07;1.38;;;1.27;;
17993;SDS011;9122;48.406;9.984;2023-07-30T11:50:53;1.40;;;1.27;;
17993;SDS011;9122;48.406;9.984;2023-07-30T11:53:46;1.60;;;1.50;;
17993;SDS011;9122;48.406;9.984;2023-07-30T11:56:33;1.75;;;1.65;;
17993;SDS011;9122;48.406;9.984;2023-07-30T11:59:20;1.00;;;1.00;;
17993;SDS011;9122;48.406;9.984;2023-07-30T12:02:05;1.50;;;1.30;;
17993;SDS011;9122;48.406;9.984;2023-07-30T12:04:50;1.50;;;1.40;;
17993;SDS011;9122;48.406;9.984;2023-07-30T12:07:34;1.52;;;1.40;;
17993;SDS011;9122;48.406;9.984;2023-07-30T12:10:23;1.75;;;1.50;;
17993;SDS011;9122;48.406;9.984;2023-07-30T12:13:17;1.67;;;1.58;;
17993;SDS011;9122;48.406;9.984;2023-07-30T12:16:03;1.50;;;1.40;;
17993;SDS011;9122;48.406;9.984;2023-07-30T12:18:47;1.55;;;1.45;;
17993;SDS011;9122;48.406;9.984;2023-07-30T12:21:32;1.20;;;1.20;;
17993;SDS011;9122;48.406;9.984;2023-07-30T12:24:16;1.90;;;1.80;;
17993;SDS011;9122;48.406;9.984;2023-07-30T12:27:01;1.40;;;1.30;;
17993;SDS011;9122;48.406;9.984;2023-07-30T12:29:46;1.55;;;1.45;;
17993;SDS011;9122;48.406;9.984;2023-07-30T12:32:30;1.80;;;1.70;;
17993;SDS011;9122;48.406;9.984;2023-07-30T12:35:14;2.65;;;1.70;;
17993;SDS011;9122;48.406;9.984;2023-07-30T12:37:59;1.65;;;1.55;;
17993;SDS011;9122;48.406;9.984;2023-07-30T12:40:44;2.53;;;1.80;;
17993;SDS011;9122;48.406;9.984;2023-07-30T12:43:28;1.98;;;1.88;;
17993;SDS011;9122;48.406;9.984;2023-07-30T12:46:13;1.90;;;1.80;;
17993;SDS011;9122;48.406;9.984;2023-07-30T12:48:58;1.15;;;1.15;;
17993;SDS011;9122;48.406;9.984;2023-07-30T12:51:47;1.70;;;1.60;;
17993;SDS011;9122;48.406;9.984;2023-07-30T12:54:31;1.52;;;1.42;;
17993;SDS011;9122;48.406;9.984;2023-07-30T12:57:15;1.63;;;1.52;;
17993;SDS011;9122;48.406;9.984;2023-07-30T13:00:00;2.17;;;1.85;;
17993;SDS011;9122;48.406;9.984;2023-07-30T13:02:45;1.95;;;1.83;;
17993;SDS011;9122;48.406;9.984;2023-07-30T13:05:29;1.85;;;1.75;;
17993;SDS011;9122;48.406;9.984;2023-07-30T13:08:13;2.45;;;1.58;;
17993;SDS011;9122;48.406;9.984;2023-07-30T13:10:58;1.90;;;1.80;;
17993;SDS011;9122;48.406;9.984;2023-07-30T13:13:42;2.22;;;2.03;;
17993;SDS011;9122;48.406;9.984;2023-07-30T13:16:26;2.10;;;1.95;;
17993;SDS011;9122;48.406;9.984;2023-07-30T13:19:12;2.10;;;2.00;;
17993;SDS011;9122;48.406;9.984;2023-07-30T13:21:56;2.38;;;1.67;;
17993;SDS011;9122;48.406;9.984;2023-07-30T13:24:40;4.70;;;1.98;;
17993;SDS011;9122;48.406;9.984;2023-07-30T13:27:25;1.50;;;1.40;;
17993;SDS011;9122;48.406;9.984;2023-07-30T13:30:09;1.63;;;1.52;;
17993;SDS011;9122;48.406;9.984;2023-07-30T13:32:53;2.30;;;1.90;;
17993;SDS011;9122;48.406;9.984;2023-07-30T13:35:37;1.88;;;1.77;;
17993;SDS011;9122;48.406;9.984;2023-07-30T13:38:22;3.25;;;1.90;;
17993;SDS011;9122;48.406;9.984;2023-07-30T13:41:09;1.65;;;1.55;;
17993;SDS011;9122;48.406;9.984;2023-07-30T13:43:53;1.80;;;1.70;;
17993;SDS011;9122;48.406;9.984;2023-07-30T13:46:37;1.52;;;1.42;;
17993;SDS011;9122;48.406;9.984;2023-07-30T13:49:23;1.50;;;1.40;;
17993;SDS011;9122;48.406;9.984;2023-07-30T13:52:08;1.70;;;1.60;;
17993;SDS011;9122;48.406;9.984;2023-07-30T13:54:52;1.75;;;1.52;;
17993;SDS011;9122;48.406;9.984;2023-07-30T13:57:36;1.67;;;1.58;;
17993;SDS011;9122;48.406;9.984;2023-07-30T14:00:21;1.77;;;1.67;;
17993;SDS011;9122;48.406;9.984;2023-07-30T14:03:05;1.85;;;1.75;;
17993;SDS011;9122;48.406;9.984;2023-07-30T14:05:50;1.20;;;1.13;;
17993;SDS011;9122;48.406;9.984;2023-07-30T14:08:35;2.50;;;2.30;;
17993;SDS011;9122;48.406;9.984;2023-07-30T14:11:19;2.08;;;1.90;;
17993;SDS011;9122;48.406;9.984;2023-07-30T14:14:03;1.73;;;1.63;;
17993;SDS011;9122;48.406;9.984;2023-07-30T14:16:49;1.67;;;1.58;;
17993;SDS011;9122;48.406;9.984;2023-07-30T14:19:33;1.70;;;1.60;;
17993;SDS011;9122;48.406;9.984;2023-07-30T14:22:18;1.60;;;1.50;;
17993;SDS011;9122;48.406;9.984;2023-07-30T14:25:02;1.92;;;1.83;;
17993;SDS011;9122;48.406;9.984;2023-07-30T14:27:47;1.60;;;1.50;;
17993;SDS011;9122;48.406;9.984;2023-07-30T14:30:31;1.95;;;1.85;;
17993;SDS011;9122;48.406;9.984;2023-07-30T14:33:16;2.83;;;1.80;;
17993;SDS011;9122;48.406;9.984;2023-07-30T14:36:00;2.25;;;2.10;;
17993;SDS011;9122;48.406;9.984;2023-07-30T14:38:47;2.30;;;2.10;;
17993;SDS011;9122;48.406;9.984;2023-07-30T14:41:31;1.73;;;1.50;;
17993;SDS011;9122;48.406;9.984;2023-07-30T14:44:15;2.13;;;1.92;;
17993;SDS011;9122;48.406;9.984;2023-07-30T14:46:59;1.42;;;1.35;;
17993;SDS011;9122;48.406;9.984;2023-07-30T14:49:43;2.05;;;1.85;;
17993;SDS011;9122;48.406;9.984;2023-07-30T14:52:28;2.00;;;1.90;;
17993;SDS011;9122;48.406;9.984;2023-07-30T14:55:12;1.60;;;1.50;;
17993;SDS011;9122;48.406;9.984;2023-07-30T14:57:57;2.22;;;1.48;;
17993;SDS011;9122;48.406;9.984;2023-07-30T15:00:41;1.95;;;1.85;;
17993;SDS011;9122;48.406;9.984;2023-07-30T15:03:27;2.22;;;2.10;;
17993;SDS011;9122;48.406;9.984;2023-07-30T15:06:12;1.98;;;1.80;;
17993;SDS011;9122;48.406;9.984;2023-07-30T15:08:56;1.70;;;1.60;;
17993;SDS011;9122;48.406;9.984;2023-07-30T15:11:41;1.80;;;1.70;;
17993;SDS011;9122;48.406;9.984;2023-07-30T15:14:26;2.47;;;1.92;;
17993;SDS011;9122;48.406;9.984;2023-07-30T15:17:11;2.00;;;1.90;;
17993;SDS011;9122;48.406;9.984;2023-07-30T15:19:55;1.75;;;1.60;;
17993;SDS011;9122;48.406;9.984;2023-07-30T15:22:42;2.00;;;1.90;;
17993;SDS011;9122;48.406;9.984;2023-07-30T15:25:27;2.05;;;1.95;;
17993;SDS011;9122;48.406;9.984;2023-07-30T15:28:11;1.90;;;1.80;;
17993;SDS011;9122;48.406;9.984;2023-07-30T15:30:56;2.15;;;1.88;;
17993;SDS011;9122;48.406;9.984;2023-07-30T15:33:41;2.40;;;2.20;;
17993;SDS011;9122;48.406;9.984;2023-07-30T15:36:25;1.90;;;1.63;;
17993;SDS011;9122;48.406;9.984;2023-07-30T15:39:09;2.03;;;1.88;;
17993;SDS011;9122;48.406;9.984;2023-07-30T15:41:54;1.85;;;1.75;;
17993;SDS011;9122;48.406;9.984;2023-07-30T15:44:38;2.28;;;1.92;;
17993;SDS011;9122;48.406;9.984;2023-07-30T15:47:23;3.80;;;1.90;;
17993;SDS011;9122;48.406;9.984;2023-07-30T15:50:07;1.90;;;1.80;;
17993;SDS011;9122;48.406;9.984;2023-07-30T15:52:52;2.42;;;2.22;;
17993;SDS011;9122;48.406;9.984;2023-07-30T15:55:39;3.80;;;2.50;;
17993;SDS011;9122;48.406;9.984;2023-07-30T15:58:24;1.95;;;1.85;;
17993;SDS011;9122;48.406;9.984;2023-07-30T16:01:08;1.83;;;1.73;;
17993;SDS011;9122;48.406;9.984;2023-07-30T16:03:53;5.45;;;2.03;;
17993;SDS011;9122;48.406;9.984;2023-07-30T16:06:38;1.63;;;1.52;;
17993;SDS011;9122;48.406;9.984;2023-07-30T16:09:22;2.25;;;2.15;;
17993;SDS011;9122;48.406;9.984;2023-07-30T16:12:07;2.33;;;2.08;;
17993;SDS011;9122;48.406;9.984;2023-07-30T16:14:52;3.50;;;1.92;;
17993;SDS011;9122;48.406;9.984;2023-07-30T16:17:37;3.05;;;2.03;;
17993;SDS011;9122;48.406;9.984;2023-07-30T16:20:22;1.83;;;1.73;;
17993;SDS011;9122;48.406;9.984;2023-07-30T16:23:06;1.98;;;1.65;;
17993;SDS011;9122;48.406;9.984;2023-07-30T16:25:51;1.75;;;1.65;;
17993;SDS011;9122;48.406;9.984;2023-07-30T16:28:35;3.22;;;2.03;;
17993;SDS011;9122;48.406;9.984;2023-07-30T16:31:20;1.77;;;1.45;;
17993;SDS011;9122;48.406;9.984;2023-07-30T16:34:04;1.65;;;1.55;;
17993;SDS011;9122;48.406;9.984;2023-07-30T16:36:48;1.48;;;1.42;;
17993;SDS011;9122;48.406;9.984;2023-07-30T16:39:33;1.95;;;1.63;;
17993;SDS011;9122;48.406;9.984;2023-07-30T16:42:17;1.90;;;1.80;;
17993;SDS011;9122;48.406;9.984;2023-07-30T16:45:02;2.05;;;1.60;;
17993;SDS011;9122;48.406;9.984;2023-07-30T16:47:47;1.98;;;1.88;;
17993;SDS011;9122;48.406;9.984;2023-07-30T16:50:31;1.40;;;1.30;;
17993;SDS011;9122;48.406;9.984;2023-07-30T16:53:15;3.25;;;1.70;;